Terminal Aerodrome Forecast
Issued by NWS

Home | Current Version | Previous Version | Text Only | Print | Product List | Glossary On
Versions: 1 2 3 4 5 6 7 8 9 10 11 12 13
000
FTUS46 KPDT 160500
TAFBDN
TAF
KBDN 160520Z 1606/1706 33011KT P6SM OVC100
     FM160900 VRB04KT P6SM OVC060
     FM162100 32008KT P6SM BKN040 OVC060=

USA.gov is the U.S. government's official web portal to all federal, state and local government web resources and services.